Time;durP1;ratioP1;P1;durP2;ratioP2;P2;SDS_P1;SDS_P2;PMS_P1;PMS_P2;Temp;Humidity;BMP_temperature;BMP_pressure;BME280_temperature;BME280_humidity;BME280_pressure;Samples;Min_cycle;Max_cycle;Signal;HPM_P1;HPM_P2
2023/06/18 00:00:59;;;;;;;2.97;2.75;;;17.90;63.30;;;;;;5016447;28;20030;-85
2023/06/18 00:03:25;;;;;;;3.40;3.10;;;17.80;63.30;;;;;;5031010;28;20079;-86
2023/06/18 00:05:53;;;;;;;2.97;2.72;;;17.80;63.50;;;;;;5035314;28;20043;-84
2023/06/18 00:08:20;;;;;;;2.90;2.70;;;17.90;63.70;;;;;;5015733;28;20026;-84
2023/06/18 00:10:46;;;;;;;2.83;2.53;;;17.90;63.80;;;;;;5019470;28;20022;-84
2023/06/18 00:13:12;;;;;;;3.30;3.00;;;17.90;63.60;;;;;;5019766;28;20092;-85
2023/06/18 00:15:37;;;;;;;2.70;2.50;;;17.90;63.40;;;;;;5020643;28;20022;-85
2023/06/18 00:18:03;;;;;;;3.38;3.08;;;17.90;63.30;;;;;;5001385;28;20028;-85
2023/06/18 00:20:29;;;;;;;3.20;2.90;;;17.80;63.30;;;;;;5003092;28;20037;-85
2023/06/18 00:22:55;;;;;;;3.50;2.95;;;17.80;63.50;;;;;;5019280;28;20112;-85
2023/06/18 00:25:21;;;;;;;3.10;2.80;;;17.70;63.60;;;;;;5019677;28;20046;-85
2023/06/18 00:27:47;;;;;;;3.10;2.80;;;17.70;63.60;;;;;;5018379;28;20072;-85
2023/06/18 00:30:14;;;;;;;3.10;2.83;;;17.70;63.70;;;;;;5018601;28;20021;-84
2023/06/18 00:32:44;;;;;;;2.47;2.28;;;17.70;63.60;;;;;;5020066;28;20022;-85
2023/06/18 00:35:17;;;;;;;2.85;2.65;;;17.60;63.70;;;;;;4999511;28;20036;-85
2023/06/18 00:37:46;;;;;;;2.78;2.47;;;17.60;63.70;;;;;;5017786;28;20025;-85
2023/06/18 00:40:15;;;;;;;2.20;2.00;;;17.60;63.80;;;;;;5018336;28;20029;-85
2023/06/18 00:42:42;;;;;;;2.40;2.20;;;17.60;63.80;;;;;;5003516;28;20077;-84
2023/06/18 00:45:09;;;;;;;2.70;2.50;;;17.60;64.10;;;;;;5019165;28;20033;-84
2023/06/18 00:47:44;;;;;;;2.70;2.35;;;17.60;64.40;;;;;;5027888;28;20021;-83
2023/06/18 00:50:16;;;;;;;2.67;2.38;;;17.60;64.70;;;;;;5042957;28;20036;-84
2023/06/18 00:52:44;;;;;;;2.35;2.15;;;17.50;64.90;;;;;;5032275;28;20112;-84
2023/06/18 00:55:16;;;;;;;2.47;2.15;;;17.50;64.80;;;;;;5029429;28;20030;-84
2023/06/18 00:57:49;;;;;;;2.95;2.40;;;17.50;64.60;;;;;;5014050;28;20022;-85
2023/06/18 01:00:21;;;;;;;2.47;2.28;;;17.50;64.60;;;;;;4983900;28;20498;-84
2023/06/18 01:02:49;;;;;;;2.90;2.47;;;17.40;64.30;;;;;;4990371;28;20038;-90
2023/06/18 01:05:15;;;;;;;2.50;2.30;;;17.40;64.10;;;;;;4996575;28;20061;-85
2023/06/18 01:07:42;;;;;;;2.47;2.28;;;17.40;63.90;;;;;;4984766;28;20025;-85
2023/06/18 01:10:11;;;;;;;2.67;2.47;;;17.40;63.80;;;;;;4984180;28;20050;-85
2023/06/18 01:12:36;;;;;;;2.65;2.38;;;17.30;63.90;;;;;;4997897;28;20098;-84
2023/06/18 01:15:02;;;;;;;2.42;2.22;;;17.30;64.20;;;;;;4996042;28;20037;-87
2023/06/18 01:17:33;;;;;;;2.35;2.15;;;17.20;64.50;;;;;;5009313;28;20029;-85
2023/06/18 01:20:13;;;;;;;2.72;2.42;;;17.20;64.60;;;;;;5020738;28;20041;-87
2023/06/18 01:22:57;;;;;;;2.60;2.40;;;17.20;65.00;;;;;;5035213;28;20093;-84
2023/06/18 01:25:29;;;;;;;2.97;2.67;;;17.10;65.50;;;;;;5025049;28;20030;-84
2023/06/18 01:27:56;;;;;;;2.70;2.50;;;17.10;65.90;;;;;;5028846;28;20028;-84
2023/06/18 01:30:22;;;;;;;2.97;2.67;;;17.10;65.90;;;;;;5023779;28;20029;-85
2023/06/18 01:32:48;;;;;;;3.00;2.47;;;17.10;66.10;;;;;;5001036;28;20116;-84
2023/06/18 01:35:16;;;;;;;2.67;2.47;;;17.10;66.00;;;;;;5017471;28;20088;-84
2023/06/18 01:38:04;;;;;;;2.60;2.40;;;17.00;65.90;;;;;;5015652;28;20169;-84
2023/06/18 01:40:47;;;;;;;3.05;2.75;;;17.00;65.80;;;;;;5011451;28;20061;-85
2023/06/18 01:43:46;;;;;;;2.97;2.70;;;17.00;65.80;;;;;;5000397;28;20022;-85
2023/06/18 01:46:16;;;;;;;3.33;3.03;;;16.90;65.90;;;;;;5015713;28;20034;-83
2023/06/18 01:48:45;;;;;;;3.88;2.97;;;16.90;66.10;;;;;;5004308;28;20029;-84
2023/06/18 01:51:14;;;;;;;3.35;2.92;;;16.90;65.90;;;;;;5027922;28;20022;-84
2023/06/18 01:53:41;;;;;;;3.63;3.17;;;16.80;65.80;;;;;;5017205;28;20076;-84
2023/06/18 01:56:09;;;;;;;3.83;3.42;;;16.70;66.00;;;;;;5019332;28;20200;-85
2023/06/18 01:58:36;;;;;;;4.43;3.65;;;16.70;66.00;;;;;;5023299;28;20072;-85
2023/06/18 02:01:02;;;;;;;3.85;3.42;;;16.70;66.10;;;;;;5004262;28;20399;-85
2023/06/18 02:03:28;;;;;;;3.35;3.05;;;16.60;66.10;;;;;;5019336;28;20080;-84
2023/06/18 02:05:55;;;;;;;3.95;3.55;;;16.60;66.10;;;;;;5016519;28;20105;-84
2023/06/18 02:08:21;;;;;;;3.72;3.30;;;16.50;66.20;;;;;;5001431;28;20026;-85
2023/06/18 02:10:47;;;;;;;3.90;3.08;;;16.40;66.40;;;;;;5018045;28;20424;-84
2023/06/18 02:13:13;;;;;;;4.05;3.15;;;16.40;66.50;;;;;;5001209;28;20049;-84
2023/06/18 02:15:41;;;;;;;3.55;3.25;;;16.30;66.70;;;;;;5034716;28;20018;-89
2023/06/18 02:18:07;;;;;;;4.63;4.05;;;16.30;67.00;;;;;;5037951;28;20014;-90
2023/06/18 02:20:33;;;;;;;4.18;3.60;;;16.30;67.00;;;;;;5037736;28;20081;-90
2023/06/18 02:22:58;;;;;;;3.67;3.28;;;16.20;66.90;;;;;;5037410;28;20109;-89
2023/06/18 02:25:29;;;;;;;3.83;3.35;;;16.20;66.90;;;;;;5034415;28;20030;-84
2023/06/18 02:27:59;;;;;;;3.63;3.17;;;16.20;67.00;;;;;;5018237;28;20079;-84
2023/06/18 02:30:28;;;;;;;3.47;3.17;;;16.20;67.00;;;;;;5016411;28;20022;-84
2023/06/18 02:32:55;;;;;;;4.28;3.53;;;16.10;67.00;;;;;;5005801;28;20029;-84
2023/06/18 02:35:21;;;;;;;4.90;3.45;;;16.20;66.90;;;;;;5016292;28;20041;-84
2023/06/18 02:37:46;;;;;;;3.72;3.38;;;16.20;67.00;;;;;;5007388;28;20083;-86
2023/06/18 02:40:15;;;;;;;3.20;2.90;;;16.20;67.00;;;;;;5015609;28;20033;-85
2023/06/18 02:42:52;;;;;;;3.50;3.20;;;16.20;66.90;;;;;;5035703;28;20072;-85
2023/06/18 02:45:22;;;;;;;2.97;2.78;;;16.10;66.70;;;;;;5029726;28;20033;-83
2023/06/18 02:47:49;;;;;;;2.50;2.30;;;16.10;66.80;;;;;;5024630;28;20467;-84
2023/06/18 02:50:16;;;;;;;3.00;2.75;;;16.10;66.90;;;;;;5022733;28;20038;-85
2023/06/18 02:52:43;;;;;;;3.92;3.05;;;16.10;67.00;;;;;;5005113;28;20084;-85
2023/06/18 02:55:10;;;;;;;3.38;3.08;;;16.10;66.90;;;;;;5024149;28;20052;-85
2023/06/18 02:57:37;;;;;;;4.00;3.25;;;16.10;66.80;;;;;;5017896;28;20026;-83
2023/06/18 03:00:13;;;;;;;3.42;2.78;;;16.10;66.70;;;;;;5017166;28;20022;-86
2023/06/18 03:02:44;;;;;;;3.13;2.83;;;16.20;66.60;;;;;;5017729;28;20022;-83
2023/06/18 03:05:10;;;;;;;3.30;3.00;;;16.10;66.40;;;;;;5007227;28;20038;-84
2023/06/18 03:07:36;;;;;;;2.83;2.58;;;16.00;66.40;;;;;;5014759;28;20092;-86
2023/06/18 03:10:02;;;;;;;3.00;2.70;;;16.00;66.70;;;;;;5015475;28;20026;-85
2023/06/18 03:12:28;;;;;;;2.63;2.42;;;16.00;66.90;;;;;;5015302;28;20034;-84
2023/06/18 03:14:54;;;;;;;2.50;2.30;;;16.00;67.10;;;;;;5016753;28;20025;-85
2023/06/18 03:17:21;;;;;;;3.38;2.95;;;15.90;67.30;;;;;;5016007;28;20475;-84
2023/06/18 03:19:46;;;;;;;2.65;2.45;;;15.90;67.60;;;;;;5017779;28;20044;-84
2023/06/18 03:22:12;;;;;;;3.25;2.83;;;15.90;67.80;;;;;;5016405;28;20026;-79
2023/06/18 03:24:38;;;;;;;2.97;2.67;;;15.90;67.80;;;;;;5015507;28;20087;-78
2023/06/18 03:27:04;;;;;;;2.63;2.42;;;15.90;67.70;;;;;;4998649;28;20029;-76
2023/06/18 03:29:34;;;;;;;3.70;2.88;;;15.80;67.50;;;;;;5014498;28;20028;-77
2023/06/18 03:32:00;;;;;;;3.70;3.05;;;15.80;67.50;;;;;;5014202;28;20058;-77
2023/06/18 03:34:26;;;;;;;4.53;3.10;;;15.80;67.70;;;;;;5010050;28;20501;-77
2023/06/18 03:36:53;;;;;;;2.92;2.47;;;15.80;67.90;;;;;;5013894;28;20515;-77
2023/06/18 03:39:20;;;;;;;2.53;2.30;;;15.80;68.20;;;;;;5015002;28;20026;-76
2023/06/18 03:41:45;;;;;;;3.05;2.80;;;15.80;68.60;;;;;;5015432;28;20053;-76
2023/06/18 03:44:11;;;;;;;2.58;2.38;;;15.80;68.90;;;;;;5015544;28;20657;-77
2023/06/18 03:46:37;;;;;;;3.00;2.70;;;15.80;69.00;;;;;;5018958;28;20041;-76
2023/06/18 03:49:03;;;;;;;2.70;2.50;;;15.80;68.70;;;;;;5019367;28;20033;-76
2023/06/18 03:51:29;;;;;;;2.65;2.45;;;15.80;68.70;;;;;;5019388;28;20028;-76
2023/06/18 03:53:54;;;;;;;2.50;2.30;;;15.80;68.50;;;;;;5019661;28;20022;-74
2023/06/18 03:56:21;;;;;;;2.80;2.60;;;15.80;68.30;;;;;;5018122;28;20054;-77
2023/06/18 03:58:48;;;;;;;3.05;2.70;;;15.90;68.20;;;;;;5017173;28;20072;-76
2023/06/18 04:01:14;;;;;;;3.50;2.75;;;15.90;68.00;;;;;;5016724;28;20669;-76
2023/06/18 04:03:40;;;;;;;3.17;2.55;;;15.90;68.00;;;;;;5014670;28;20048;-75
2023/06/18 04:06:07;;;;;;;3.55;3.22;;;15.90;68.00;;;;;;5015172;28;20467;-77
2023/06/18 04:08:33;;;;;;;3.53;2.92;;;16.00;68.00;;;;;;5020976;28;20113;-75
2023/06/18 04:10:59;;;;;;;3.00;2.70;;;16.00;67.80;;;;;;5018470;28;20033;-77
2023/06/18 04:13:25;;;;;;;3.10;2.80;;;16.00;67.70;;;;;;5017840;28;20034;-76
2023/06/18 04:15:51;;;;;;;3.78;3.38;;;16.10;67.40;;;;;;5020107;28;20022;-77
2023/06/18 04:18:17;;;;;;;2.75;2.55;;;16.20;67.10;;;;;;5021606;28;20033;-76
2023/06/18 04:20:44;;;;;;;3.33;3.00;;;16.30;66.70;;;;;;5022786;28;20030;-77
2023/06/18 04:23:11;;;;;;;3.15;2.67;;;16.30;66.30;;;;;;4979341;28;1280524;-77
2023/06/18 04:25:37;;;;;;;2.92;2.63;;;16.40;66.00;;;;;;5021504;28;20068;-77
2023/06/18 04:28:02;;;;;;;3.72;3.00;;;16.40;65.70;;;;;;5017977;28;20471;-78
2023/06/18 04:30:28;;;;;;;3.55;3.25;;;16.50;65.40;;;;;;5019212;28;20052;-77
2023/06/18 04:32:54;;;;;;;3.38;2.92;;;16.60;65.10;;;;;;5017860;28;20072;-77
2023/06/18 04:35:19;;;;;;;2.90;2.70;;;16.70;65.00;;;;;;5014146;28;20030;-76
2023/06/18 04:37:45;;;;;;;3.22;2.85;;;16.80;64.70;;;;;;5020105;28;20475;-77
2023/06/18 04:40:12;;;;;;;3.83;3.28;;;16.90;64.50;;;;;;5022776;28;20083;-77
2023/06/18 04:42:38;;;;;;;2.95;2.67;;;17.00;64.30;;;;;;5019884;28;20034;-77
2023/06/18 04:45:04;;;;;;;3.55;3.25;;;17.00;64.10;;;;;;5015564;28;20102;-76
2023/06/18 04:47:30;;;;;;;2.65;2.45;;;17.10;63.70;;;;;;5001442;28;20030;-77
2023/06/18 04:49:56;;;;;;;2.67;2.47;;;17.20;63.40;;;;;;5019573;28;20059;-76
2023/06/18 04:52:22;;;;;;;3.10;2.65;;;17.30;63.20;;;;;;5018986;28;20100;-77
2023/06/18 04:54:47;;;;;;;3.70;3.13;;;17.50;63.10;;;;;;5004478;28;20092;-76
2023/06/18 04:57:13;;;;;;;2.70;2.50;;;17.50;62.40;;;;;;4997753;28;20026;-77
2023/06/18 04:59:40;;;;;;;3.17;2.70;;;17.60;62.20;;;;;;4986784;28;20018;-77
2023/06/18 05:02:08;;;;;;;3.13;2.83;;;17.70;62.20;;;;;;5026485;28;20052;-78
2023/06/18 05:04:34;;;;;;;3.20;2.78;;;17.80;61.80;;;;;;4999000;28;20080;-78
2023/06/18 05:07:00;;;;;;;2.72;2.53;;;18.00;61.80;;;;;;5008508;28;20026;-78
2023/06/18 05:09:27;;;;;;;2.83;2.63;;;18.60;61.80;;;;;;5017596;28;20036;-79
2023/06/18 05:11:52;;;;;;;2.63;2.38;;;20.10;59.50;;;;;;4999525;28;20018;-79
2023/06/18 05:14:18;;;;;;;2.40;2.20;;;;;;;;;;5016633;28;20024;-77
2023/06/18 05:16:44;;;;;;;2.45;2.25;;;23.30;51.60;;;;;;5018492;28;20029;-82
2023/06/18 05:19:10;;;;;;;2.40;2.20;;;24.00;50.70;;;;;;5027281;28;20041;-77
2023/06/18 05:21:35;;;;;;;2.10;2.00;;;24.90;48.40;;;;;;5017543;28;20553;-78
2023/06/18 05:24:01;;;;;;;1.83;1.73;;;25.70;47.20;;;;;;5017208;28;20030;-79
2023/06/18 05:26:27;;;;;;;1.70;1.60;;;26.40;45.70;;;;;;5001399;28;20034;-78
2023/06/18 05:28:52;;;;;;;1.80;1.70;;;27.10;44.50;;;;;;4998499;28;20026;-77
2023/06/18 05:31:18;;;;;;;1.63;1.52;;;27.70;43.40;;;;;;4998194;28;20038;-78
2023/06/18 05:33:44;;;;;;;1.70;1.60;;;28.10;42.30;;;;;;5004127;28;20067;-78
2023/06/18 05:36:10;;;;;;;1.90;1.80;;;28.50;41.70;;;;;;5011525;28;20450;-78
2023/06/18 05:38:35;;;;;;;1.85;1.75;;;28.80;40.80;;;;;;5005815;28;20110;-79
2023/06/18 05:41:01;;;;;;;1.70;1.60;;;29.10;40.70;;;;;;4998972;28;20455;-79
2023/06/18 05:43:28;;;;;;;1.38;1.38;;;29.60;40.10;;;;;;4999342;28;20062;-79
2023/06/18 05:45:54;;;;;;;1.20;1.20;;;30.10;39.50;;;;;;4981297;28;20030;-80
2023/06/18 05:48:20;;;;;;;1.52;1.45;;;30.30;38.50;;;;;;5000314;28;20038;-79
2023/06/18 05:50:45;;;;;;;1.20;1.20;;;30.50;38.20;;;;;;4981719;28;20057;-78
2023/06/18 05:53:11;;;;;;;1.20;1.20;;;30.70;38.00;;;;;;5003329;28;20076;-79
2023/06/18 05:55:37;;;;;;;1.30;1.30;;;30.90;37.50;;;;;;5001712;28;20030;-78
2023/06/18 05:58:02;;;;;;;1.13;1.13;;;31.10;37.30;;;;;;5010943;28;20042;-79
2023/06/18 06:00:28;;;;;;;1.15;1.15;;;31.20;37.40;;;;;;5017953;28;20025;-80
2023/06/18 06:02:54;;;;;;;1.27;1.27;;;31.20;36.90;;;;;;5017994;28;20074;-79
2023/06/18 06:05:20;;;;;;;1.40;1.40;;;31.10;37.00;;;;;;4993772;28;20026;-78
2023/06/18 06:07:46;;;;;;;1.20;1.20;;;31.20;37.30;;;;;;5012986;28;20145;-78
2023/06/18 06:10:14;;;;;;;1.10;1.10;;;31.20;37.00;;;;;;5000499;28;20069;-78
2023/06/18 06:12:40;;;;;;;2.10;2.00;;;31.50;37.00;;;;;;5014218;28;20084;-79
2023/06/18 06:15:06;;;;;;;2.45;2.35;;;31.70;36.30;;;;;;5002309;28;20101;-77
2023/06/18 06:17:32;;;;;;;3.03;2.83;;;31.80;36.20;;;;;;5016388;28;20100;-78
2023/06/18 06:19:57;;;;;;;2.90;2.70;;;31.80;36.00;;;;;;4996337;28;20050;-78
2023/06/18 06:22:23;;;;;;;2.35;2.25;;;31.90;35.90;;;;;;5021450;28;20073;-78
2023/06/18 06:24:49;;;;;;;2.53;2.40;;;31.90;35.70;;;;;;5002762;28;20042;-76
2023/06/18 06:27:14;;;;;;;3.00;2.80;;;32.10;35.70;;;;;;4999823;28;20082;-77
2023/06/18 06:29:40;;;;;;;2.20;2.10;;;32.20;35.80;;;;;;5000643;28;20439;-76
2023/06/18 06:32:06;;;;;;;2.10;2.00;;;32.50;35.50;;;;;;4999322;28;20023;-80
2023/06/18 06:34:32;;;;;;;2.20;2.10;;;32.70;35.20;;;;;;4995747;28;20502;-79
2023/06/18 06:36:57;;;;;;;2.03;1.92;;;32.80;35.10;;;;;;5010053;28;20098;-77
2023/06/18 06:39:23;;;;;;;1.40;1.40;;;33.00;34.90;;;;;;5014037;28;20030;-80
2023/06/18 06:41:49;;;;;;;2.30;2.20;;;33.40;34.80;;;;;;5024892;28;20055;-77
2023/06/18 06:44:15;;;;;;;2.30;2.20;;;33.50;34.10;;;;;;5005408;28;20046;-78
2023/06/18 06:46:41;;;;;;;2.72;2.53;;;33.50;33.90;;;;;;5031579;28;20037;-77
2023/06/18 06:49:07;;;;;;;2.00;1.90;;;33.70;34.20;;;;;;5017342;28;20038;-77
2023/06/18 06:51:35;;;;;;;2.00;1.90;;;33.80;33.80;;;;;;5002518;28;20022;-78
2023/06/18 06:54:01;;;;;;;2.13;2.03;;;33.70;33.70;;;;;;5003439;28;20411;-77
2023/06/18 06:56:26;;;;;;;1.80;1.70;;;33.80;33.90;;;;;;5009544;28;20045;-78
2023/06/18 06:58:52;;;;;;;1.83;1.73;;;34.10;34.70;;;;;;4998361;28;20492;-79
2023/06/18 07:01:21;;;;;;;1.75;1.70;;;34.30;33.50;;;;;;5007770;28;20155;-79
2023/06/18 07:03:46;;;;;;;1.58;1.50;;;34.50;33.30;;;;;;5023983;28;20082;-80
2023/06/18 07:06:12;;;;;;;1.73;1.63;;;34.50;33.30;;;;;;5013749;28;20019;-79
2023/06/18 07:08:38;;;;;;;1.20;1.20;;;34.50;33.20;;;;;;4998846;28;20030;-79
2023/06/18 07:11:04;;;;;;;1.40;1.40;;;34.50;33.30;;;;;;5009003;28;20591;-79
2023/06/18 07:13:30;;;;;;;1.80;1.70;;;34.50;33.40;;;;;;5009640;28;20014;-78
2023/06/18 07:15:56;;;;;;;2.35;2.17;;;34.40;33.20;;;;;;5007860;28;20042;-79
2023/06/18 07:18:22;;;;;;;2.10;2.00;;;34.20;33.20;;;;;;5007022;28;20031;-79
2023/06/18 07:20:47;;;;;;;2.00;1.90;;;34.10;33.50;;;;;;5015791;28;20037;-78
2023/06/18 07:23:13;;;;;;;2.15;2.05;;;33.10;33.30;;;;;;5032936;28;20038;-79
2023/06/18 07:25:39;;;;;;;2.00;1.90;;;31.40;34.00;;;;;;5034162;28;20097;-77
2023/06/18 07:28:05;;;;;;;1.77;1.67;;;;;;;;;;5036867;28;20088;-77
2023/06/18 07:30:31;;;;;;;2.13;2.03;;;28.30;36.00;;;;;;5037190;28;20021;-78
2023/06/18 07:32:56;;;;;;;1.98;1.88;;;27.30;37.60;;;;;;5037640;28;20030;-80
2023/06/18 07:35:22;;;;;;;2.17;2.08;;;26.50;39.00;;;;;;5022088;28;20029;-82
2023/06/18 07:37:49;;;;;;;2.10;2.00;;;25.90;39.90;;;;;;5015963;28;20021;-81
2023/06/18 07:40:15;;;;;;;2.00;1.90;;;25.60;40.90;;;;;;5016553;28;20040;-81
2023/06/18 07:42:40;;;;;;;1.92;1.83;;;25.40;41.10;;;;;;5017501;28;20022;-83
2023/06/18 07:45:06;;;;;;;2.50;2.10;;;25.30;42.20;;;;;;5016756;28;20017;-82
2023/06/18 07:47:32;;;;;;;2.53;2.33;;;25.20;42.00;;;;;;5016132;28;20029;-82
2023/06/18 07:49:59;;;;;;;3.17;2.92;;;25.10;42.40;;;;;;5016728;28;20040;-81
2023/06/18 07:52:26;;;;;;;2.47;2.28;;;25.10;42.60;;;;;;4998819;28;20022;-81
2023/06/18 07:54:52;;;;;;;2.22;2.13;;;25.10;42.60;;;;;;5015192;28;20097;-81
2023/06/18 07:57:17;;;;;;;2.72;2.53;;;25.10;42.60;;;;;;4999103;28;20388;-82
2023/06/18 07:59:43;;;;;;;2.78;2.58;;;25.10;42.00;;;;;;4998651;28;20030;-82
2023/06/18 08:02:09;;;;;;;2.67;2.47;;;25.10;42.00;;;;;;5017497;28;20060;-82
2023/06/18 08:04:35;;;;;;;3.13;2.88;;;25.20;42.10;;;;;;5016078;28;20121;-82
2023/06/18 08:07:00;;;;;;;3.30;3.00;;;25.20;42.00;;;;;;5007546;28;20026;-81
2023/06/18 08:09:26;;;;;;;3.85;3.55;;;25.20;42.00;;;;;;5016366;28;20022;-82
2023/06/18 08:11:52;;;;;;;6.38;5.03;;;25.20;41.70;;;;;;5019951;28;20072;-83
2023/06/18 08:14:18;;;;;;;5.03;4.30;;;25.20;41.10;;;;;;5025007;28;20057;-82
2023/06/18 08:16:44;;;;;;;5.18;4.68;;;25.10;41.20;;;;;;5016199;28;20379;-82
2023/06/18 08:19:09;;;;;;;5.75;4.80;;;25.10;41.50;;;;;;4998384;28;20548;-82
2023/06/18 08:21:35;;;;;;;4.95;4.45;;;25.10;41.20;;;;;;5015977;28;20018;-81
2023/06/18 08:24:02;;;;;;;4.20;3.85;;;25.10;41.10;;;;;;5016228;28;20133;-82
2023/06/18 08:26:28;;;;;;;3.97;3.58;;;25.30;41.00;;;;;;5016243;28;20054;-82
2023/06/18 08:28:54;;;;;;;3.47;3.17;;;25.40;40.60;;;;;;5015773;28;20037;-83
2023/06/18 08:31:20;;;;;;;4.30;3.88;;;25.50;40.50;;;;;;5016310;28;20026;-82
2023/06/18 08:33:46;;;;;;;4.50;4.10;;;25.50;40.80;;;;;;5018498;28;20121;-82
2023/06/18 08:36:12;;;;;;;4.25;3.88;;;25.50;40.40;;;;;;5011994;28;20041;-83
2023/06/18 08:38:37;;;;;;;4.22;3.83;;;25.60;40.60;;;;;;5020855;28;20105;-81
2023/06/18 08:41:03;;;;;;;4.72;4.20;;;25.70;40.50;;;;;;5020253;28;20522;-81
2023/06/18 08:43:32;;;;;;;4.78;4.20;;;25.80;40.80;;;;;;5020241;28;20025;-81
2023/06/18 08:46:28;;;;;;;4.50;4.10;;;25.80;41.00;;;;;;5000904;28;20439;-82
2023/06/18 08:49:02;;;;;;;4.43;4.03;;;26.00;41.10;;;;;;5021727;28;20029;-84
2023/06/18 08:51:28;;;;;;;4.80;4.35;;;26.00;40.40;;;;;;5039230;28;20034;-82
2023/06/18 08:54:08;;;;;;;4.80;4.40;;;26.10;40.70;;;;;;5021445;28;20022;-81
2023/06/18 08:56:41;;;;;;;3.85;3.55;;;26.20;40.30;;;;;;5028602;28;20026;-83
2023/06/18 08:59:06;;;;;;;5.25;4.75;;;26.20;40.40;;;;;;5020217;28;20034;-82
2023/06/18 09:01:33;;;;;;;5.15;4.65;;;26.40;40.40;;;;;;5019592;28;20018;-82
2023/06/18 09:04:00;;;;;;;5.10;4.60;;;26.50;40.30;;;;;;5018581;28;20089;-82
2023/06/18 09:06:26;;;;;;;5.10;4.60;;;26.60;40.30;;;;;;5010707;28;20029;-82
2023/06/18 09:08:52;;;;;;;5.32;4.82;;;26.70;40.10;;;;;;5018849;28;20025;-82
2023/06/18 09:11:18;;;;;;;5.10;4.63;;;26.60;39.70;;;;;;5001489;28;20033;-83
2023/06/18 09:13:44;;;;;;;4.95;4.32;;;26.50;39.90;;;;;;5020163;28;20022;-81
2023/06/18 09:16:10;;;;;;;6.13;4.95;;;26.60;39.90;;;;;;5019859;28;20061;-83
2023/06/18 09:18:36;;;;;;;5.00;4.50;;;26.60;39.90;;;;;;5020466;28;20399;-82
2023/06/18 09:21:05;;;;;;;5.25;4.75;;;26.70;39.80;;;;;;5019771;28;20026;-82
2023/06/18 09:23:31;;;;;;;5.80;4.72;;;26.80;39.80;;;;;;5022793;28;20041;-82
2023/06/18 09:25:58;;;;;;;5.50;5.00;;;26.90;39.90;;;;;;5021623;28;20105;-80
2023/06/18 09:28:25;;;;;;;5.70;5.13;;;26.70;40.20;;;;;;5022107;28;20057;-81
2023/06/18 09:30:59;;;;;;;5.97;4.93;;;26.60;40.70;;;;;;5021519;28;20025;-82
2023/06/18 09:33:35;;;;;;;6.78;4.65;;;26.70;40.70;;;;;;5032399;28;20060;-80
2023/06/18 09:36:06;;;;;;;6.00;4.65;;;26.70;40.60;;;;;;5007527;28;20018;-82
2023/06/18 09:38:40;;;;;;;5.43;4.93;;;26.70;40.60;;;;;;5004710;28;20567;-82
2023/06/18 09:41:27;;;;;;;5.65;5.10;;;26.80;40.40;;;;;;5004346;28;20272;-82
2023/06/18 09:43:54;;;;;;;6.68;5.30;;;26.90;40.40;;;;;;5002715;28;20042;-82
2023/06/18 09:46:25;;;;;;;5.72;4.70;;;27.00;40.50;;;;;;5021787;28;20018;-83
2023/06/18 09:48:50;;;;;;;6.10;4.82;;;27.10;40.70;;;;;;5029561;28;20026;-83
2023/06/18 09:51:17;;;;;;;5.75;5.15;;;27.10;40.70;;;;;;5022996;28;20443;-82
2023/06/18 09:53:42;;;;;;;5.40;4.90;;;27.00;40.80;;;;;;5024377;28;20033;-82
2023/06/18 09:56:08;;;;;;;5.85;4.75;;;27.00;40.80;;;;;;5024731;28;20353;-82
2023/06/18 09:58:46;;;;;;;6.60;5.53;;;27.10;41.10;;;;;;5026260;28;20033;-83
2023/06/18 10:01:13;;;;;;;5.85;5.25;;;27.20;40.80;;;;;;5034307;28;20026;-82
2023/06/18 10:03:40;;;;;;;6.22;5.07;;;27.20;40.60;;;;;;5016042;28;20025;-81
2023/06/18 10:06:20;;;;;;;5.18;4.68;;;27.30;40.60;;;;;;5030753;28;20011;-82
2023/06/18 10:08:50;;;;;;;7.03;5.43;;;27.30;40.20;;;;;;5017022;28;20030;-82
2023/06/18 10:11:18;;;;;;;5.00;4.60;;;27.30;39.90;;;;;;4999087;28;20048;-82
2023/06/18 10:13:52;;;;;;;4.28;3.88;;;27.40;40.00;;;;;;5018096;28;20041;-83
2023/06/18 10:16:20;;;;;;;6.00;5.40;;;27.40;40.20;;;;;;5030942;28;20070;-82
2023/06/18 10:19:06;;;;;;;6.53;4.40;;;27.50;39.80;;;;;;5032308;28;20022;-82
2023/06/18 10:21:36;;;;;;;6.55;5.45;;;27.50;40.40;;;;;;5037037;28;20013;-81
2023/06/18 10:24:09;;;;;;;5.68;5.15;;;27.60;39.70;;;;;;5036785;28;20044;-81
2023/06/18 10:26:36;;;;;;;5.68;5.18;;;27.70;39.20;;;;;;5037231;28;20022;-80
2023/06/18 10:29:03;;;;;;;5.45;4.95;;;27.60;39.20;;;;;;5035242;28;20041;-81
2023/06/18 10:31:29;;;;;;;5.68;5.13;;;27.60;39.40;;;;;;5031562;28;20081;-82
2023/06/18 10:33:57;;;;;;;5.85;5.35;;;27.80;39.10;;;;;;5024356;28;20037;-79
2023/06/18 10:36:23;;;;;;;5.60;5.10;;;27.70;38.60;;;;;;5004744;28;20472;-82
2023/06/18 10:38:50;;;;;;;6.68;4.72;;;27.60;39.10;;;;;;5022458;28;20069;-82
2023/06/18 10:41:20;;;;;;;6.50;5.28;;;;;;;;;;5020012;28;20037;-82
2023/06/18 10:43:54;;;;;;;6.07;5.53;;;27.60;38.20;;;;;;5019682;28;20053;-83
2023/06/18 10:46:22;;;;;;;5.55;5.05;;;27.60;39.50;;;;;;5002441;28;20073;-82
2023/06/18 10:49:10;;;;;;;5.90;4.75;;;27.90;39.60;;;;;;4987899;28;20034;-82
2023/06/18 10:51:36;;;;;;;5.35;4.30;;;28.10;38.90;;;;;;5015193;28;20049;-82
2023/06/18 10:54:21;;;;;;;5.60;5.00;;;28.10;39.10;;;;;;5005841;28;20030;-82
2023/06/18 10:56:52;;;;;;;4.60;4.20;;;28.20;39.20;;;;;;5017229;28;20037;-82
2023/06/18 10:59:40;;;;;;;4.93;4.53;;;28.30;39.10;;;;;;5021944;28;20029;-81
2023/06/18 11:02:05;;;;;;;4.93;4.53;;;28.50;39.00;;;;;;5002274;28;20021;-82
2023/06/18 11:04:33;;;;;;;4.68;4.28;;;28.70;38.70;;;;;;5020514;28;20030;-81
2023/06/18 11:07:17;;;;;;;4.70;4.30;;;28.70;38.60;;;;;;5022118;28;20053;-81
2023/06/18 11:09:59;;;;;;;5.47;5.05;;;28.90;38.50;;;;;;5033731;28;20014;-81
2023/06/18 11:12:38;;;;;;;7.25;5.32;;;29.10;38.30;;;;;;5031890;28;20010;-82
2023/06/18 11:15:21;;;;;;;5.70;4.95;;;29.00;37.60;;;;;;5032481;28;20026;-82
2023/06/18 11:17:51;;;;;;;5.82;5.03;;;28.90;37.90;;;;;;5006806;28;20564;-82
2023/06/18 11:20:20;;;;;;;4.72;4.32;;;28.90;37.90;;;;;;5001575;28;20030;-83
2023/06/18 11:22:47;;;;;;;5.38;4.90;;;28.90;38.00;;;;;;5005407;28;20034;-83
2023/06/18 11:25:14;;;;;;;4.53;4.13;;;28.90;37.60;;;;;;5004521;28;20093;-83
2023/06/18 11:27:52;;;;;;;4.93;4.53;;;28.90;37.60;;;;;;4999541;28;20026;-82
2023/06/18 11:30:18;;;;;;;5.30;4.80;;;29.10;37.80;;;;;;4999012;28;20407;-82
2023/06/18 11:32:45;;;;;;;5.18;4.70;;;29.10;37.50;;;;;;4999075;28;20029;-80
2023/06/18 11:35:12;;;;;;;5.22;4.82;;;29.10;37.50;;;;;;4995013;28;20113;-80
2023/06/18 11:37:40;;;;;;;5.43;4.93;;;28.90;37.30;;;;;;4994556;28;20042;-81
2023/06/18 11:40:07;;;;;;;4.75;4.35;;;29.00;37.80;;;;;;5021428;28;20090;-81
2023/06/18 11:42:33;;;;;;;6.50;5.03;;;29.20;37.70;;;;;;5021885;28;20471;-82
2023/06/18 11:45:04;;;;;;;4.70;4.30;;;29.30;37.40;;;;;;5020184;28;20068;-81
2023/06/18 11:47:31;;;;;;;6.07;5.07;;;29.30;37.60;;;;;;5002995;28;20037;-81
2023/06/18 11:49:57;;;;;;;5.00;4.50;;;29.50;37.50;;;;;;5004311;28;20152;-82
2023/06/18 11:52:27;;;;;;;5.57;5.07;;;29.60;37.40;;;;;;5021627;28;20077;-80
2023/06/18 11:54:54;;;;;;;6.20;5.60;;;29.70;38.10;;;;;;5004077;28;20026;-83
2023/06/18 11:57:21;;;;;;;5.07;4.68;;;29.80;37.10;;;;;;5003075;28;20037;-82
2023/06/18 11:59:54;;;;;;;5.07;4.55;;;29.90;37.20;;;;;;5022818;28;20066;-82
2023/06/18 12:02:29;;;;;;;7.57;5.05;;;29.90;36.90;;;;;;5023104;28;20030;-81
2023/06/18 12:05:12;;;;;;;7.45;5.70;;;29.80;36.80;;;;;;5022379;28;20030;-80
2023/06/18 12:07:41;;;;;;;5.50;4.80;;;29.80;36.60;;;;;;5028339;28;20052;-82
2023/06/18 12:10:09;;;;;;;4.90;4.50;;;29.70;36.90;;;;;;5007189;28;20410;-82
2023/06/18 12:13:01;;;;;;;5.38;4.88;;;29.80;36.90;;;;;;5023649;28;20025;-81
2023/06/18 12:15:39;;;;;;;5.95;5.45;;;30.00;37.10;;;;;;5023832;28;20094;-82
2023/06/18 12:18:11;;;;;;;5.72;5.18;;;30.10;36.70;;;;;;5025349;28;20061;-82
2023/06/18 12:20:37;;;;;;;5.72;5.13;;;30.00;36.70;;;;;;5023888;28;20034;-82
2023/06/18 12:23:07;;;;;;;5.03;4.63;;;29.90;37.10;;;;;;5025605;28;20036;-82
2023/06/18 12:25:33;;;;;;;5.15;4.65;;;30.10;37.00;;;;;;5008826;28;20383;-80
2023/06/18 12:28:04;;;;;;;5.53;4.72;;;30.10;36.60;;;;;;5006576;28;20068;-81
2023/06/18 12:30:35;;;;;;;6.20;5.07;;;30.10;36.60;;;;;;5022986;28;20018;-82
2023/06/18 12:33:06;;;;;;;5.55;4.80;;;30.00;36.60;;;;;;5023556;28;20064;-81
2023/06/18 12:35:32;;;;;;;;;;;30.00;36.70;;;;;;5021430;28;20037;-83
2023/06/18 12:38:03;;;;;;;5.38;4.90;;;30.00;36.40;;;;;;5025748;28;19995;-81
2023/06/18 12:40:29;;;;;;;5.18;4.70;;;29.90;36.70;;;;;;5027125;28;20030;-81
2023/06/18 12:42:55;;;;;;;5.97;5.43;;;30.00;36.50;;;;;;5023734;28;20108;-81
2023/06/18 12:45:31;;;;;;;8.02;5.22;;;30.00;36.60;;;;;;5024856;28;20026;-81
2023/06/18 12:47:57;;;;;;;5.90;4.95;;;30.10;36.50;;;;;;5024373;28;20521;-80
2023/06/18 12:50:38;;;;;;;5.10;4.70;;;30.00;36.60;;;;;;5023694;28;20026;-81
2023/06/18 12:53:33;;;;;;;5.80;5.17;;;30.00;36.70;;;;;;5028934;28;20018;-81